Time;durP1;ratioP1;P1;durP2;ratioP2;P2;SDS_P1;SDS_P2;PMS_P1;PMS_P2;Temp;Humidity;BMP_temperature;BMP_pressure;BME280_temperature;BME280_humidity;BME280_pressure;Samples;Min_cycle;Max_cycle;Signal;HPM_P1;HPM_P2
2022/06/13 00:03:58;;;;;;;;;;;;;;;14.27;69.77;99639.44;8380413;28;19928;-75
2022/06/13 00:08:00;;;;;;;;;;;;;;;14.18;69.95;99643.06;8385838;28;19928;-75
2022/06/13 00:12:01;;;;;;;;;;;;;;;14.10;70.94;99642.31;8384983;28;19943;-75
2022/06/13 00:16:04;;;;;;;;;;;;;;;14.02;71.65;99650.28;8382180;28;19967;-75
2022/06/13 00:20:06;;;;;;;;;;;;;;;13.91;72.01;99647.81;8373755;28;19936;-76
2022/06/13 00:24:08;;;;;;;;;;;;;;;13.85;71.96;99644.44;8372613;28;19928;-76
2022/06/13 00:28:10;;;;;;;;;;;;;;;13.76;72.47;99655.84;8376698;28;20023;-75
2022/06/13 00:32:11;;;;;;;;;;;;;;;13.70;72.22;99658.53;8370912;28;19938;-75
2022/06/13 00:36:13;;;;;;;;;;;;;;;13.63;72.25;99656.00;8382780;28;20331;-76
2022/06/13 00:40:15;;;;;;;;;;;;;;;13.58;71.93;99666.50;8382388;28;20015;-75
2022/06/13 00:44:17;;;;;;;;;;;;;;;13.55;73.00;99663.94;8385767;28;19936;-75
2022/06/13 00:48:24;;;;;;;;;;;;;;;13.48;73.42;99665.75;8393113;28;19964;-75
2022/06/13 00:52:40;;;;;;;;;;;;;;;13.42;73.28;99667.56;8380718;28;20329;-75
2022/06/13 00:56:42;;;;;;;;;;;;;;;13.35;73.56;99672.00;8375730;28;20544;-75
2022/06/13 01:00:46;;;;;;;;;;;;;;;13.24;74.31;99676.44;8385330;28;19975;-75
2022/06/13 01:04:51;;;;;;;;;;;;;;;13.18;73.95;99677.38;8388490;28;19929;-75
2022/06/13 01:08:52;;;;;;;;;;;;;;;13.14;74.18;99683.50;8385198;28;19959;-76
2022/06/13 01:12:54;;;;;;;;;;;;;;;13.05;75.38;99686.16;8381100;28;20470;-76
2022/06/13 01:17:07;;;;;;;;;;;;;;;12.95;76.02;99684.56;8368610;28;19967;-75
2022/06/13 01:21:36;;;;;;;;;;;;;;;12.93;76.02;99687.19;8379885;28;19928;-76
2022/06/13 01:25:41;;;;;;;;;;;;;;;12.88;76.27;99683.72;8374013;28;19995;-75
2022/06/13 01:29:42;;;;;;;;;;;;;;;12.88;76.02;99682.84;8372765;28;19964;-75
2022/06/13 01:34:02;;;;;;;;;;;;;;;12.82;77.35;99689.00;8389924;28;19971;-75
2022/06/13 01:38:13;;;;;;;;;;;;;;;12.68;78.09;99691.72;8388385;28;19940;-75
2022/06/13 01:42:33;;;;;;;;;;;;;;;12.58;78.27;99690.06;8374406;28;19936;-75
2022/06/13 01:46:37;;;;;;;;;;;;;;;12.55;77.73;99681.41;8377361;28;20371;-75
2022/06/13 01:50:43;;;;;;;;;;;;;;;12.50;78.25;99681.44;8390128;28;19928;-76
2022/06/13 01:54:55;;;;;;;;;;;;;;;12.42;78.76;99678.03;8379488;28;20249;-75
2022/06/13 01:58:59;;;;;;;;;;;;;;;12.32;78.61;99687.63;8379298;28;19938;-76
2022/06/13 02:03:16;;;;;;;;;;;;;;;12.25;79.44;99692.91;8386905;28;19935;-76
2022/06/13 02:07:20;;;;;;;;;;;;;;;12.23;79.71;99705.94;8392184;28;19963;-76
2022/06/13 02:11:21;;;;;;;;;;;;;;;12.13;80.10;99703.38;8394051;28;20019;-76
2022/06/13 02:15:28;;;;;;;;;;;;;;;12.06;80.63;99705.16;8385146;28;19928;-76
2022/06/13 02:19:34;;;;;;;;;;;;;;;12.00;80.87;99695.63;8393975;28;19928;-76
2022/06/13 02:23:38;;;;;;;;;;;;;;;11.98;80.77;99693.91;8380246;28;20201;-76
2022/06/13 02:27:40;;;;;;;;;;;;;;;11.94;80.78;99698.28;8398355;28;19983;-76
2022/06/13 02:31:48;;;;;;;;;;;;;;;11.94;80.85;99690.47;8380627;28;19928;-76
2022/06/13 02:35:52;;;;;;;;;;;;;;;11.84;80.94;99691.38;8380017;28;19929;-76
2022/06/13 02:39:53;;;;;;;;;;;;;;;11.80;80.79;99687.06;8391479;28;19928;-76
2022/06/13 02:44:01;;;;;;;;;;;;;;;11.74;81.53;99687.06;8393262;28;20407;-75
2022/06/13 02:48:14;;;;;;;;;;;;;;;11.61;81.83;99681.06;8385140;28;19933;-76
2022/06/13 02:52:22;;;;;;;;;;;;;;;11.60;82.26;99689.72;8402430;28;19939;-76
2022/06/13 02:56:32;;;;;;;;;;;;;;;11.59;82.13;99701.00;8373155;28;20019;-76
2022/06/13 03:00:52;;;;;;;;;;;;;;;11.50;82.03;99703.66;8408435;28;20680;-76
2022/06/13 03:04:58;;;;;;;;;;;;;;;11.44;82.53;99704.50;8387842;28;19933;-75
2022/06/13 03:09:03;;;;;;;;;;;;;;;11.44;82.39;99706.25;8376828;28;19932;-75
2022/06/13 03:13:30;;;;;;;;;;;;;;;11.44;82.18;99706.25;8386014;28;19935;-76
2022/06/13 03:17:44;;;;;;;;;;;;;;;11.47;82.03;99709.69;8354540;28;20307;-75
2022/06/13 03:21:48;;;;;;;;;;;;;;;11.41;82.31;99712.31;8387400;28;19929;-75
2022/06/13 03:25:54;;;;;;;;;;;;;;;11.35;82.37;99714.94;8388355;28;20623;-76
2022/06/13 03:30:00;;;;;;;;;;;;;;;11.35;82.28;99714.94;8374933;28;19929;-76
2022/06/13 03:34:06;;;;;;;;;;;;;;;11.32;82.23;99724.50;8369422;28;20446;-76
2022/06/13 03:38:12;;;;;;;;;;;;;;;11.27;82.58;99716.69;8383702;28;19944;-76
2022/06/13 03:42:14;;;;;;;;;;;;;;;11.15;82.94;99727.13;8367391;28;19929;-76
2022/06/13 03:46:19;;;;;;;;;;;;;;;11.03;83.75;99732.31;8398930;28;19939;-76
2022/06/13 03:50:23;;;;;;;;;;;;;;;11.00;84.01;99730.59;8372953;28;19929;-76
2022/06/13 03:54:54;;;;;;;;;;;;;;;11.01;84.42;99734.94;8381225;28;19928;-77
2022/06/13 03:59:03;;;;;;;;;;;;;;;11.09;84.33;99742.69;8372748;28;20451;-77
2022/06/13 04:03:06;;;;;;;;;;;;;;;11.11;84.72;99741.81;8387363;28;20751;-77
2022/06/13 04:07:08;;;;;;;;;;;;;;;11.16;84.67;99750.50;8366093;28;20509;-77
2022/06/13 04:11:26;;;;;;;;;;;;;;;11.19;84.78;99755.69;8379364;28;19935;-76
2022/06/13 04:15:42;;;;;;;;;;;;;;;11.29;84.90;99753.06;8367730;28;19932;-76
2022/06/13 04:19:53;;;;;;;;;;;;;;;11.35;84.65;99746.16;8375543;28;19928;-76
2022/06/13 04:24:00;;;;;;;;;;;;;;;11.45;84.75;99746.97;8380992;28;20295;-77
2022/06/13 04:28:05;;;;;;;;;;;;;;;11.54;84.63;99752.16;8373792;28;19935;-77
2022/06/13 04:32:09;;;;;;;;;;;;;;;11.66;84.63;99762.53;8386870;28;19928;-76
2022/06/13 04:36:12;;;;;;;;;;;;;;;11.83;84.34;99762.50;8383578;28;19936;-77
2022/06/13 04:40:17;;;;;;;;;;;;;;;11.95;83.84;99759.88;8385405;28;20437;-77
2022/06/13 04:44:21;;;;;;;;;;;;;;;12.04;83.63;99762.44;8378555;28;19928;-77
2022/06/13 04:48:23;;;;;;;;;;;;;;;12.18;82.97;99769.31;8362993;28;20315;-76
2022/06/13 04:52:29;;;;;;;;;;;;;;;12.33;82.77;99767.50;8386468;28;20023;-76
2022/06/13 04:56:31;;;;;;;;;;;;;;;12.53;82.48;99777.78;8371408;28;19929;-76
2022/06/13 05:00:34;;;;;;;;;;;;;;;12.69;82.55;99774.22;8381471;28;19932;-77
2022/06/13 05:04:35;;;;;;;;;;;;;;;12.90;82.03;99781.00;8371600;28;19939;-77
2022/06/13 05:08:40;;;;;;;;;;;;;;;13.13;81.72;99777.38;8384061;28;19939;-76
2022/06/13 05:12:44;;;;;;;;;;;;;;;13.39;79.89;99779.75;8376424;28;20312;-77
2022/06/13 05:16:46;;;;;;;;;;;;;;;13.64;79.67;99781.22;8367860;28;20004;-76
2022/06/13 05:20:47;;;;;;;;;;;;;;;13.88;78.94;99787.94;8352653;28;20317;-78
2022/06/13 05:24:58;;;;;;;;;;;;;;;14.15;78.54;99792.81;8344628;28;19940;-77
2022/06/13 05:29:00;;;;;;;;;;;;;;;14.49;77.73;99801.13;8352077;28;19928;-76
2022/06/13 05:33:02;;;;;;;;;;;;;;;14.91;75.42;99796.16;8337908;28;20010;-76
2022/06/13 05:37:06;;;;;;;;;;;;;;;15.46;73.10;99799.63;8360611;28;19935;-77
2022/06/13 05:41:08;;;;;;;;;;;;;;;15.96;70.74;99803.94;8349454;28;20285;-77
2022/06/13 05:45:13;;;;;;;;;;;;;;;16.41;68.89;99798.66;8337989;28;19950;-77
2022/06/13 05:49:17;;;;;;;;;;;;;;;16.94;67.40;99805.34;8350639;28;20027;-77
2022/06/13 05:53:22;;;;;;;;;;;;;;;17.45;65.89;99795.31;8351714;28;19928;-77
2022/06/13 05:57:23;;;;;;;;;;;;;;;17.96;64.40;99810.63;8348011;28;19964;-77
2022/06/13 06:01:25;;;;;;;;;;;;;;;18.39;62.24;99810.25;8326793;28;19968;-77
2022/06/13 06:05:26;;;;;;;;;;;;;;;18.81;60.44;99817.75;8347070;28;19933;-77
2022/06/13 06:09:28;;;;;;;;;;;;;;;19.20;58.82;99822.66;8354685;28;20291;-77
2022/06/13 06:13:30;;;;;;;;;;;;;;;19.71;56.66;99825.34;8358050;28;20019;-77
2022/06/13 06:17:32;;;;;;;;;;;;;;;20.21;55.28;99828.81;8389121;28;19939;-77
2022/06/13 06:21:33;;;;;;;;;;;;;;;20.81;53.96;99818.66;8397161;28;19968;-77
2022/06/13 06:25:35;;;;;;;;;;;;;;;21.35;52.31;99834.09;8394706;28;20032;-77
2022/06/13 06:29:36;;;;;;;;;;;;;;;21.66;51.84;99828.38;8390490;28;20237;-77
2022/06/13 06:33:38;;;;;;;;;;;;;;;22.06;49.82;99826.66;8390008;28;19929;-77
2022/06/13 06:37:40;;;;;;;;;;;;;;;22.31;47.89;99831.72;8374061;28;20035;-77
2022/06/13 06:41:42;;;;;;;;;;;;;;;22.36;47.31;99832.38;8379539;28;20382;-77
2022/06/13 06:45:44;;;;;;;;;;;;;;;22.46;47.79;99843.41;8371551;28;19928;-76
2022/06/13 06:49:47;;;;;;;;;;;;;;;22.34;47.06;99849.25;8377233;28;20016;-75
2022/06/13 07:02:29;;;;;;;;;;;;;;;22.71;46.33;99853.72;8382609;28;20236;-76
2022/06/13 07:06:30;;;;;;;;;;;;;;;22.86;44.43;99853.88;8396731;28;20063;-76
2022/06/13 07:10:32;;;;;;;;;;;;;;;22.92;43.22;99858.00;8395617;28;19928;-75
2022/06/13 07:14:34;;;;;;;;;;;;;;;23.00;43.72;99861.19;8383014;28;20062;-76
2022/06/13 07:18:36;;;;;;;;;;;;;;;23.02;41.39;99863.75;8372867;28;19929;-76
2022/06/13 07:22:44;;;;;;;;;;;;;;;23.15;41.61;99856.91;8394938;28;19991;-76
2022/06/13 07:26:45;;;;;;;;;;;;;;;23.35;40.58;99864.75;8404942;28;19935;-76
2022/06/13 07:30:47;;;;;;;;;;;;;;;23.40;40.17;99865.38;8383377;28;19960;-76
2022/06/13 07:34:49;;;;;;;;;;;;;;;23.41;39.19;99856.50;8385009;28;19932;-76
2022/06/13 07:38:52;;;;;;;;;;;;;;;23.58;39.25;99870.75;8385087;28;19962;-76
2022/06/13 07:42:55;;;;;;;;;;;;;;;23.63;38.99;99869.56;8364690;28;19975;-76
2022/06/13 07:46:57;;;;;;;;;;;;;;;23.63;39.75;99864.25;8363626;28;20620;-76
2022/06/13 07:50:59;;;;;;;;;;;;;;;23.80;38.61;99871.38;8371429;28;20380;-76
2022/06/13 07:55:00;;;;;;;;;;;;;;;23.80;37.35;99866.06;8368116;28;19952;-76
2022/06/13 07:59:03;;;;;;;;;;;;;;;24.00;37.44;99859.72;8385048;28;19934;-76
2022/06/13 08:03:05;;;;;;;;;;;;;;;24.14;36.87;99861.66;8384396;28;19972;-76
2022/06/13 08:07:08;;;;;;;;;;;;;;;24.09;36.51;99853.97;8385040;28;20025;-75
2022/06/13 08:11:11;;;;;;;;;;;;;;;24.16;35.92;99855.34;8397082;28;20441;-75
2022/06/13 08:15:13;;;;;;;;;;;;;;;24.31;36.66;99854.56;8368350;28;19939;-75
2022/06/13 08:19:15;;;;;;;;;;;;;;;24.46;34.67;99855.53;8382542;28;19991;-75
2022/06/13 08:23:18;;;;;;;;;;;;;;;24.66;34.13;99849.13;8375348;28;19939;-74
2022/06/13 08:27:20;;;;;;;;;;;;;;;24.70;33.88;99854.19;8385672;28;20035;-74
2022/06/13 08:31:22;;;;;;;;;;;;;;;24.49;33.44;99854.50;8377393;28;19928;-74
2022/06/13 08:35:23;;;;;;;;;;;;;;;24.44;34.47;99851.25;8364662;28;19929;-74
2022/06/13 08:39:35;;;;;;;;;;;;;;;24.37;34.74;99843.59;8367335;28;19972;-74
2022/06/13 08:43:55;;;;;;;;;;;;;;;24.58;35.83;99846.88;8368300;28;20675;-74
2022/06/13 08:48:02;;;;;;;;;;;;;;;24.68;34.80;99852.56;8371453;28;20198;-74
2022/06/13 08:52:22;;;;;;;;;;;;;;;24.71;35.49;99852.38;8375552;28;19982;-74
2022/06/13 08:56:29;;;;;;;;;;;;;;;24.82;34.76;99855.31;8358208;28;19928;-73
2022/06/13 09:00:33;;;;;;;;;;;;;;;24.99;35.50;99865.00;8373938;28;19932;-74
2022/06/13 09:04:40;;;;;;;;;;;;;;;25.12;34.93;99865.19;8377566;28;19933;-73
2022/06/13 09:08:51;;;;;;;;;;;;;;;25.22;33.75;99863.72;8382067;28;20396;-74
2022/06/13 09:12:57;;;;;;;;;;;;;;;25.25;34.96;99860.88;8366550;28;19933;-74
2022/06/13 09:17:05;;;;;;;;;;;;;;;24.68;33.49;99869.34;8378767;28;19928;-74
2022/06/13 09:21:21;;;;;;;;;;;;;;;24.31;35.80;99866.97;8361406;28;19939;-73
2022/06/13 09:25:25;;;;;;;;;;;;;;;24.63;33.90;99865.25;8378606;28;19954;-75
2022/06/13 09:29:44;;;;;;;;;;;;;;;24.55;34.18;99876.25;8378899;28;19932;-74
2022/06/13 09:33:51;;;;;;;;;;;;;;;24.25;36.14;99876.09;8355727;28;20365;-74
2022/06/13 09:38:04;;;;;;;;;;;;;;;23.64;35.05;99876.59;8349747;28;20690;-74
2022/06/13 09:42:14;;;;;;;;;;;;;;;23.85;35.09;99877.28;8357387;28;20094;-74
2022/06/13 09:46:22;;;;;;;;;;;;;;;24.09;35.01;99876.03;8360886;28;20019;-74
2022/06/13 09:50:30;;;;;;;;;;;;;;;24.54;33.48;99884.31;8364714;28;19946;-73
2022/06/13 09:54:49;;;;;;;;;;;;;;;24.80;33.65;99869.63;8363915;28;19975;-73
2022/06/13 09:58:56;;;;;;;;;;;;;;;24.60;33.40;99876.03;8351433;28;20325;-74
2022/06/13 10:03:10;;;;;;;;;;;;;;;24.29;34.72;99876.81;8346552;28;20213;-75
2022/06/13 10:07:30;;;;;;;;;;;;;;;24.22;34.63;99880.69;8372237;28;20360;-75
2022/06/13 10:11:40;;;;;;;;;;;;;;;24.60;35.66;99882.22;8373856;28;20242;-75
2022/06/13 10:15:58;;;;;;;;;;;;;;;25.03;35.97;99879.88;8367660;28;19939;-75
2022/06/13 10:20:03;;;;;;;;;;;;;;;24.95;34.59;99879.38;8376703;28;19982;-76
2022/06/13 10:24:21;;;;;;;;;;;;;;;24.44;34.40;99878.66;8361120;28;19928;-76
2022/06/13 10:28:23;;;;;;;;;;;;;;;24.06;34.55;99880.66;8360891;28;20423;-76
2022/06/13 10:32:30;;;;;;;;;;;;;;;23.66;35.21;99884.47;8373397;28;19928;-75
2022/06/13 10:36:50;;;;;;;;;;;;;;;23.62;37.11;99877.59;8324651;28;21079;-74
2022/06/13 10:40:52;;;;;;;;;;;;;;;23.34;35.32;99878.94;8325585;28;19968;-75
2022/06/13 10:44:54;;;;;;;;;;;;;;;23.00;36.81;99870.91;8350677;28;19975;-74
2022/06/13 10:49:04;;;;;;;;;;;;;;;22.73;36.83;99875.66;8313272;28;19933;-74
2022/06/13 10:53:08;;;;;;;;;;;;;;;22.60;38.11;99873.56;8316764;28;19933;-75
2022/06/13 10:57:12;;;;;;;;;;;;;;;22.49;38.23;99872.38;8310088;28;19929;-75
2022/06/13 11:01:18;;;;;;;;;;;;;;;22.64;39.21;99873.47;8308448;28;19929;-75
2022/06/13 11:05:25;;;;;;;;;;;;;;;23.09;37.46;99870.47;8281320;28;19944;-77
2022/06/13 11:09:35;;;;;;;;;;;;;;;23.31;36.70;99872.91;8299899;28;19977;-74
2022/06/13 11:13:38;;;;;;;;;;;;;;;23.42;37.07;99867.97;8285706;28;19929;-75
2022/06/13 11:22:38;;;;;;;;;;;;;;;23.38;37.03;99877.00;8316207;28;20024;-76
2022/06/13 11:31:25;;;;;;;;;;;;;;;23.41;38.25;99858.28;8315549;28;20349;-76
2022/06/13 11:35:27;;;;;;;;;;;;;;;23.26;35.81;99862.56;8354013;28;19983;-76
2022/06/13 11:39:31;;;;;;;;;;;;;;;23.36;36.04;99855.88;8379948;28;19964;-76
2022/06/13 11:43:39;;;;;;;;;;;;;;;23.94;35.18;99855.59;8382760;28;19928;-77
2022/06/13 11:47:43;;;;;;;;;;;;;;;24.14;34.46;99846.59;8361846;28;19990;-76
2022/06/13 11:51:53;;;;;;;;;;;;;;;24.22;33.42;99852.34;8331975;28;19929;-76
2022/06/13 11:55:56;;;;;;;;;;;;;;;24.32;33.96;99850.09;8347712;28;19964;-76
2022/06/13 12:00:04;;;;;;;;;;;;;;;24.20;34.24;99843.63;8350803;28;19945;-75
2022/06/13 12:04:11;;;;;;;;;;;;;;;23.95;34.17;99848.50;8349940;28;20341;-75
2022/06/13 12:08:16;;;;;;;;;;;;;;;23.96;34.42;99839.59;8347000;28;19936;-76
2022/06/13 12:12:17;;;;;;;;;;;;;;;24.26;34.63;99842.44;8350804;28;19956;-75
2022/06/13 12:16:25;;;;;;;;;;;;;;;24.34;33.83;99843.78;8348402;28;19928;-76
2022/06/13 12:20:33;;;;;;;;;;;;;;;24.26;32.59;99832.69;8339784;28;20018;-76
2022/06/13 12:25:01;;;;;;;;;;;;;;;24.02;33.76;99839.28;8336933;28;19943;-75
2022/06/13 12:29:35;;;;;;;;;;;;;;;23.87;34.70;99835.63;8338020;28;19990;-76
2022/06/13 12:33:48;;;;;;;;;;;;;;;23.68;36.44;99838.38;8317998;28;19928;-75
2022/06/13 12:38:10;;;;;;;;;;;;;;;23.54;34.92;99830.25;8325224;28;19935;-75
2022/06/13 12:42:21;;;;;;;;;;;;;;;23.99;35.46;99827.03;8316535;28;20039;-74
2022/06/13 12:46:41;;;;;;;;;;;;;;;24.58;35.30;99828.28;8344273;28;20023;-75
2022/06/13 12:50:48;;;;;;;;;;;;;;;25.14;34.30;99829.63;8356333;28;19982;-75
2022/06/13 12:54:51;;;;;;;;;;;;;;;25.04;33.62;99840.84;8390366;28;20691;-74
2022/06/13 12:59:01;;;;;;;;;;;;;;;24.69;32.91;99846.31;8372974;28;20327;-74
2022/06/13 13:03:21;;;;;;;;;;;;;;;24.07;34.83;99847.88;8370864;28;19932;-75
2022/06/13 13:07:26;;;;;;;;;;;;;;;23.71;36.41;99846.19;8392301;28;20050;-75
2022/06/13 13:11:48;;;;;;;;;;;;;;;23.59;37.20;99835.34;8382382;28;19975;-76
2022/06/13 13:16:15;;;;;;;;;;;;;;;24.09;36.41;99832.72;8358983;28;20046;-76
2022/06/13 13:20:20;;;;;;;;;;;;;;;24.59;34.28;99827.34;8375378;28;19928;-76
2022/06/13 13:24:33;;;;;;;;;;;;;;;24.48;34.53;99827.09;8365855;28;20347;-75
2022/06/13 13:28:42;;;;;;;;;;;;;;;24.34;34.75;99822.53;8379510;28;19936;-75
2022/06/13 13:32:52;;;;;;;;;;;;;;;24.88;34.40;99820.44;8383156;28;20015;-76
2022/06/13 13:36:57;;;;;;;;;;;;;;;25.23;33.42;99813.13;8366859;28;19939;-76
2022/06/13 13:41:06;;;;;;;;;;;;;;;25.16;32.50;99814.44;8396380;28;19929;-76
2022/06/13 13:45:10;;;;;;;;;;;;;;;24.77;33.54;99816.66;8378651;28;19932;-75
2022/06/13 13:49:14;;;;;;;;;;;;;;;24.52;33.65;99811.84;8400920;28;19966;-76
2022/06/13 13:53:17;;;;;;;;;;;;;;;24.95;34.20;99823.59;8386649;28;19942;-76
2022/06/13 13:57:24;;;;;;;;;;;;;;;25.37;34.19;99800.84;8390187;28;20027;-76
2022/06/13 14:01:32;;;;;;;;;;;;;;;25.74;33.60;99816.38;8379842;28;19959;-76
2022/06/13 14:05:39;;;;;;;;;;;;;;;25.61;32.79;99810.88;8367251;28;19928;-75
2022/06/13 14:09:41;;;;;;;;;;;;;;;25.44;30.77;99808.34;8369550;28;19975;-75
2022/06/13 14:13:46;;;;;;;;;;;;;;;25.18;33.02;99814.34;8385751;28;19971;-78
2022/06/13 14:17:49;;;;;;;;;;;;;;;24.93;34.90;99815.69;8380225;28;19939;-75
2022/06/13 14:21:50;;;;;;;;;;;;;;;24.52;33.58;99812.72;8389911;28;19943;-75
2022/06/13 14:25:56;;;;;;;;;;;;;;;24.29;36.14;99813.13;8369840;28;19932;-75
2022/06/13 14:31:03;;;;;;;;;;;;;;;24.14;37.12;99813.91;8383639;28;19929;-75
2022/06/13 14:39:04;;;;;;;;;;;;;;;24.31;36.01;99804.13;8384807;28;19971;-75
2022/06/13 14:43:10;;;;;;;;;;;;;;;24.59;34.28;99787.53;8383905;28;19960;-76
2022/06/13 14:47:30;;;;;;;;;;;;;;;24.96;35.04;99799.63;8366196;28;20306;-74
2022/06/13 14:51:52;;;;;;;;;;;;;;;25.30;33.39;99784.38;8347560;28;20020;-74
2022/06/13 14:56:08;;;;;;;;;;;;;;;25.49;32.42;99789.47;8350160;28;20518;-74
2022/06/13 15:00:13;;;;;;;;;;;;;;;25.90;33.65;99781.69;8345410;28;19960;-73
2022/06/13 15:04:16;;;;;;;;;;;;;;;26.15;31.86;99784.56;8378176;28;19928;-73
2022/06/13 15:08:25;;;;;;;;;;;;;;;26.34;32.57;99786.91;8368721;28;20553;-73
2022/06/13 15:12:29;;;;;;;;;;;;;;;26.48;31.59;99786.06;8383325;28;19971;-73
2022/06/13 15:16:33;;;;;;;;;;;;;;;26.45;31.45;99787.13;8370642;28;19928;-73
2022/06/13 15:20:43;;;;;;;;;;;;;;;26.34;30.98;99783.41;8349036;28;20282;-74
2022/06/13 15:24:46;;;;;;;;;;;;;;;26.30;32.03;99777.41;8348573;28;19929;-74
2022/06/13 15:29:03;;;;;;;;;;;;;;;25.90;30.60;99781.69;8349222;28;19938;-74
2022/06/13 15:33:11;;;;;;;;;;;;;;;25.91;31.84;99775.44;8365635;28;19928;-74
2022/06/13 15:37:12;;;;;;;;;;;;;;;26.13;31.90;99772.28;8379760;28;19928;-74
2022/06/13 15:41:26;;;;;;;;;;;;;;;26.31;32.20;99773.78;8382671;28;19928;-74
2022/06/13 15:45:31;;;;;;;;;;;;;;;26.43;31.33;99775.72;8374938;28;20345;-74
2022/06/13 15:49:37;;;;;;;;;;;;;;;26.63;29.59;99774.44;8379422;28;20031;-73
2022/06/13 15:53:39;;;;;;;;;;;;;;;26.74;29.19;99776.41;8362642;28;20419;-74
2022/06/13 15:57:45;;;;;;;;;;;;;;;26.75;29.64;99768.34;8376983;28;19929;-74
2022/06/13 16:01:48;;;;;;;;;;;;;;;26.92;29.97;99761.88;8385903;28;19932;-74
2022/06/13 16:05:58;;;;;;;;;;;;;;;26.91;28.43;99757.50;8379347;28;20366;-73
2022/06/13 16:10:00;;;;;;;;;;;;;;;26.77;29.53;99757.56;8377824;28;20351;-73
2022/06/13 16:14:03;;;;;;;;;;;;;;;26.92;30.50;99761.00;8380857;28;19939;-73
2022/06/13 16:18:11;;;;;;;;;;;;;;;26.69;28.81;99757.19;8358557;28;20738;-74
2022/06/13 16:22:17;;;;;;;;;;;;;;;26.86;29.62;99756.94;8323323;28;19964;-74
2022/06/13 16:26:20;;;;;;;;;;;;;;;26.90;28.85;99755.78;8332943;28;19968;-74
2022/06/13 16:30:21;;;;;;;;;;;;;;;26.78;27.64;99757.47;8345541;28;19943;-74
2022/06/13 16:34:25;;;;;;;;;;;;;;;26.53;28.51;99761.81;8342263;28;19960;-73
2022/06/13 16:39:01;;;;;;;;;;;;;;;26.31;29.06;99760.47;8345089;28;21316;-73
2022/06/13 16:43:04;;;;;;;;;;;;;;;25.92;29.18;99769.16;8296549;28;19994;-73
2022/06/13 16:47:07;;;;;;;;;;;;;;;25.50;31.33;99761.97;8358840;28;19928;-73
2022/06/13 16:51:11;;;;;;;;;;;;;;;25.12;31.45;99761.53;8378889;28;19928;-73
2022/06/13 16:55:14;;;;;;;;;;;;;;;24.64;30.47;99760.72;8380874;28;19929;-73
2022/06/13 16:59:20;;;;;;;;;;;;;;;24.30;33.11;99751.13;8380169;28;19967;-73
2022/06/13 17:03:21;;;;;;;;;;;;;;;23.97;32.63;99759.09;8349890;28;19929;-73
2022/06/13 17:07:28;;;;;;;;;;;;;;;23.64;33.67;99764.38;8330651;28;19929;-73
2022/06/13 17:11:48;;;;;;;;;;;;;;;23.40;34.19;99762.03;8348111;28;20010;-73
2022/06/13 17:15:54;;;;;;;;;;;;;;;23.09;34.92;99759.19;8344000;28;19933;-73
2022/06/13 17:19:57;;;;;;;;;;;;;;;22.84;36.12;99759.56;8364636;28;19932;-73
2022/06/13 17:24:00;;;;;;;;;;;;;;;22.65;34.58;99762.22;8364438;28;20027;-73
2022/06/13 17:32:42;;;;;;;;;;;;;;;22.40;36.39;99766.94;8336279;28;20067;-73
2022/06/13 17:36:44;;;;;;;;;;;;;;;22.30;36.67;99766.50;8343616;28;19928;-73
2022/06/13 17:40:47;;;;;;;;;;;;;;;22.19;35.69;99771.44;8362803;28;19928;-73
2022/06/13 17:44:49;;;;;;;;;;;;;;;22.08;36.80;99774.56;8355728;28;20050;-73
2022/06/13 17:48:50;;;;;;;;;;;;;;;21.94;36.10;99772.53;8370543;28;20047;-72
2022/06/13 17:52:53;;;;;;;;;;;;;;;21.79;37.59;99773.19;8380110;28;19928;-72
2022/06/13 17:56:54;;;;;;;;;;;;;;;21.60;36.84;99773.16;8380146;28;20027;-72
2022/06/13 18:00:56;;;;;;;;;;;;;;;21.48;37.10;99776.31;8371878;28;20019;-72
2022/06/13 18:04:58;;;;;;;;;;;;;;;21.32;39.68;99770.81;8349734;28;19964;-72
2022/06/13 18:09:01;;;;;;;;;;;;;;;21.15;41.36;99781.19;8367384;28;20562;-72
2022/06/13 18:13:05;;;;;;;;;;;;;;;21.00;42.00;99777.38;8360196;28;19968;-72
2022/06/13 18:17:08;;;;;;;;;;;;;;;20.83;41.66;99782.53;8359530;28;20023;-73
2022/06/13 18:21:11;;;;;;;;;;;;;;;20.68;42.50;99781.34;8367301;28;19932;-73
2022/06/13 18:25:13;;;;;;;;;;;;;;;20.55;43.00;99777.47;8383104;28;19938;-73
2022/06/13 18:29:17;;;;;;;;;;;;;;;20.38;44.46;99780.72;8382733;28;20039;-73
2022/06/13 18:33:19;;;;;;;;;;;;;;;20.13;47.50;99780.78;8365199;28;20316;-73
2022/06/13 18:37:21;;;;;;;;;;;;;;;19.92;47.91;99787.69;8368533;28;19964;-73
2022/06/13 18:41:25;;;;;;;;;;;;;;;19.67;48.57;99786.84;8389923;28;19933;-73
2022/06/13 18:45:26;;;;;;;;;;;;;;;19.42;46.75;99786.81;8374594;28;19932;-73
2022/06/13 18:49:28;;;;;;;;;;;;;;;19.33;48.58;99782.72;8336517;28;20346;-73
2022/06/13 18:53:30;;;;;;;;;;;;;;;19.14;49.66;99775.47;8348563;28;19939;-73
2022/06/13 18:57:31;;;;;;;;;;;;;;;19.02;49.32;99780.22;8344434;28;20031;-73
2022/06/13 19:01:38;;;;;;;;;;;;;;;18.93;49.46;99784.94;8345129;28;19966;-72
2022/06/13 19:05:41;;;;;;;;;;;;;;;18.83;50.29;99778.25;8382117;28;20411;-72
2022/06/13 19:09:45;;;;;;;;;;;;;;;18.60;51.34;99784.19;8382221;28;19967;-72
2022/06/13 19:13:48;;;;;;;;;;;;;;;18.37;52.81;99782.28;8382437;28;19940;-73
2022/06/13 19:17:51;;;;;;;;;;;;;;;18.33;49.59;99785.91;8359579;28;20427;-72
2022/06/13 19:21:52;;;;;;;;;;;;;;;18.29;49.97;99787.75;8347934;28;20302;-73
2022/06/13 19:25:55;;;;;;;;;;;;;;;18.22;50.03;99787.97;8353991;28;19928;-72
2022/06/13 19:29:57;;;;;;;;;;;;;;;17.97;51.81;99796.56;8355674;28;19943;-72
2022/06/13 19:34:00;;;;;;;;;;;;;;;17.58;53.52;99801.09;8348179;28;20309;-73
2022/06/13 19:38:02;;;;;;;;;;;;;;;17.40;54.99;99806.81;8348859;28;19929;-72
2022/06/13 19:42:04;;;;;;;;;;;;;;;17.29;55.39;99820.22;8349581;28;20015;-71
2022/06/13 19:46:06;;;;;;;;;;;;;;;17.16;55.27;99824.03;8354560;28;19928;-72
2022/06/13 19:50:08;;;;;;;;;;;;;;;16.96;56.15;99826.28;8381020;28;19928;-72
2022/06/13 19:54:10;;;;;;;;;;;;;;;16.78;56.83;99830.19;8382368;28;20328;-72
2022/06/13 19:58:13;;;;;;;;;;;;;;;16.64;57.12;99830.47;8363408;28;20280;-71
2022/06/13 20:02:15;;;;;;;;;;;;;;;16.41;57.22;99840.59;8366835;28;19967;-73
2022/06/13 20:10:36;;;;;;;;;;;;;;;16.18;59.04;99848.94;8356592;28;19932;-73
2022/06/13 20:14:38;;;;;;;;;;;;;;;16.12;58.75;99856.88;8356460;28;19935;-73
2022/06/13 20:18:45;;;;;;;;;;;;;;;16.05;59.70;99850.91;8371418;28;19928;-74
2022/06/13 20:22:46;;;;;;;;;;;;;;;15.91;59.71;99853.78;8378775;28;19933;-73
2022/06/13 20:26:48;;;;;;;;;;;;;;;15.83;59.32;99863.56;8360650;28;19951;-73
2022/06/13 20:30:51;;;;;;;;;;;;;;;15.77;59.86;99861.03;8353998;28;19971;-73
2022/06/13 20:34:55;;;;;;;;;;;;;;;15.68;60.85;99858.59;8343662;28;19972;-73
2022/06/13 20:39:01;;;;;;;;;;;;;;;15.58;61.09;99870.06;8347047;28;19938;-73
2022/06/13 20:43:02;;;;;;;;;;;;;;;15.49;61.70;99868.47;8330485;28;19979;-73
2022/06/13 20:47:05;;;;;;;;;;;;;;;15.40;61.91;99874.72;8346285;28;19964;-73
2022/06/13 20:51:10;;;;;;;;;;;;;;;15.28;62.78;99877.53;8347325;28;19978;-73
2022/06/13 20:55:12;;;;;;;;;;;;;;;15.15;63.05;99873.38;8367038;28;19935;-73
2022/06/13 20:59:17;;;;;;;;;;;;;;;14.98;63.40;99876.25;8361475;28;19939;-74
2022/06/13 21:03:21;;;;;;;;;;;;;;;14.80;63.37;99871.28;8364130;28;19928;-74
2022/06/13 21:07:24;;;;;;;;;;;;;;;14.65;64.00;99877.56;8345695;28;19933;-74
2022/06/13 21:11:25;;;;;;;;;;;;;;;14.53;64.13;99880.34;8335960;28;19929;-73
2022/06/13 21:15:29;;;;;;;;;;;;;;;14.47;64.58;99877.81;8357672;28;20614;-73
2022/06/13 21:19:30;;;;;;;;;;;;;;;14.33;65.23;99875.31;8367598;28;19983;-74
2022/06/13 21:23:32;;;;;;;;;;;;;;;14.28;65.45;99868.44;8365622;28;19939;-73
2022/06/13 21:27:33;;;;;;;;;;;;;;;14.21;65.55;99867.66;8346189;28;19928;-74
2022/06/13 21:31:35;;;;;;;;;;;;;;;14.12;65.97;99868.59;8325391;28;20615;-73
2022/06/13 21:35:36;;;;;;;;;;;;;;;14.01;65.94;99877.44;8344400;28;19929;-74
2022/06/13 21:39:38;;;;;;;;;;;;;;;13.90;66.71;99869.72;8332916;28;20412;-74
2022/06/13 21:43:40;;;;;;;;;;;;;;;13.79;66.94;99874.16;8336610;28;20347;-74
2022/06/13 21:47:42;;;;;;;;;;;;;;;13.57;66.58;99879.59;8365505;28;20341;-74
2022/06/13 21:51:43;;;;;;;;;;;;;;;13.52;67.34;99885.75;8383802;28;20032;-73
2022/06/13 21:55:46;;;;;;;;;;;;;;;13.50;68.03;99890.97;8367465;28;20042;-73